PDT,Max TemperatureF,Mean TemperatureF,Min TemperatureF,Max Dew PointF,MeanDew PointF,Min DewpointF,Max Humidity, Mean Humidity, Min Humidity, Max Sea Level PressureIn, Mean Sea Level PressureIn, Min Sea Level PressureIn, Max VisibilityMiles, Mean VisibilityMiles, Min VisibilityMiles, Max Wind SpeedMPH, Mean Wind SpeedMPH, Max Gust SpeedMPH,PrecipitationIn, CloudCover, Events, WindDirDegrees
2010-10-1,64,54,45,57,50,45,100,91,74,30.13,29.97,29.87,10,6,1,10,2,,0.00,3,,204
2010-10-2,64,58,54,54,52,51,94,80,66,30.13,30.07,29.97,10,9,4,6,1,,0.00,8,,343
2010-10-3,62,56,47,54,52,45,91,82,69,30.05,30.00,29.96,10,10,8,9,3,,0.02,7,Rain,214
2010-10-4,60,52,45,49,47,44,94,80,67,30.30,30.16,30.05,10,10,8,7,4,,0.00,6,,176
2010-10-5,62,49,37,52,41,36,100,95,53,30.46,30.38,30.31,10,2,0,12,0,,0.00,1,Fog,141
2010-10-6,66,52,39,51,44,37,100,91,56,30.29,30.16,29.91,10,4,0,7,1,,0.00,5,Fog,43
2010-10-7,63,52,43,52,49,42,100,84,63,30.12,30.02,29.92,10,8,2,13,3,,0.00,5,,203
2010-10-8,68,60,53,55,51,49,96,73,52,30.16,30.11,30.05,10,9,2,10,4,,0.09,7,Rain,207
2010-10-9,64,59,55,62,59,55,100,95,88,30.17,30.10,30.07,10,7,2,8,2,,0.63,8,Rain,102
2010-10-10,64,56,48,63,55,48,100,89,76,30.35,30.22,30.08,10,9,2,21,10,26,0.41,7,Rain,205
2010-10-11,61,50,39,46,43,39,97,81,52,30.48,30.44,30.35,10,10,8,10,4,,0.00,2,,189
2010-10-12,64,50,37,46,41,36,100,87,50,30.44,30.32,30.27,10,6,0,7,2,,0.00,0,Fog,79
2010-10-13,66,52,37,52,41,36,100,94,58,30.27,30.20,30.06,10,2,0,4,0,,0.00,2,Fog,119
2010-10-14,64,50,37,52,43,36,100,92,62,30.24,30.13,30.11,10,5,1,10,2,,0.05,2,Rain,210
2010-10-15,55,45,35,47,38,35,100,95,51,30.38,30.32,30.24,10,3,0,14,1,,0.00,1,Fog,130
2010-10-16,56,44,34,43,38,33,95,79,57,30.23,30.21,30.19,10,10,10,7,2,,0.00,2,,21
2010-10-17,56,43,30,46,34,28,100,96,54,30.29,30.26,30.22,10,3,0,8,1,,0.00,4,Fog,169
2010-10-18,60,46,33,46,39,32,100,91,50,30.33,30.30,30.26,10,6,0,6,0,,0.00,3,Fog,29
2010-10-19,63,48,33,48,38,32,100,93,49,30.26,30.20,30.04,10,4,0,9,1,,0.00,3,Fog,32
2010-10-20,66,50,35,52,41,34,100,96,53,30.04,29.95,29.87,10,2,0,5,0,,0.00,2,Fog,162
2010-10-21,59,47,35,54,42,36,100,96,70,29.94,29.89,29.87,10,3,0,9,1,,0.01,2,Fog-Rain,176
2010-10-22,61,52,44,52,47,43,100,91,58,29.97,29.92,29.84,10,5,0,12,3,18,0.02,2,Fog-Rain,195
2010-10-23,59,53,47,50,48,45,100,85,67,29.83,29.71,29.44,10,10,5,14,4,18,0.34,6,Rain,147
2010-10-24,53,50,46,48,45,43,100,88,76,29.53,29.40,29.31,10,9,2,22,12,33,1.08,5,Rain-Thunderstorm,174
2010-10-25,54,48,43,47,44,39,93,86,64,29.84,29.70,29.53,10,10,4,22,14,34,0.52,7,Rain,183
2010-10-26,48,45,42,46,42,39,94,89,81,30.12,29.93,29.83,10,10,10,22,12,29,0.30,8,Rain,172
2010-10-27,57,48,39,46,42,37,100,87,65,30.17,30.09,29.91,10,6,0,10,4,,0.00,1,Fog,103
2010-10-28,53,50,47,50,47,42,99,88,71,30.04,29.96,29.89,10,9,2,8,2,,0.06,7,Rain,145
2010-10-29,60,49,39,49,43,39,100,96,58,30.09,29.99,29.91,10,3,0,5,1,,0.02,2,Fog-Rain,187
2010-10-30,51,41,32,48,38,32,100,98,88,29.91,29.85,29.76,10,4,0,9,0,,0.29,2,Fog-Rain,177
2010-10-31,57,50,44,48,45,39,96,85,52,30.09,29.96,29.80,10,10,5,13,8,,0.19,4,Rain,181